Time;durP1;ratioP1;P1;durP2;ratioP2;P2;SDS_P1;SDS_P2;PMS_P1;PMS_P2;Temp;Humidity;BMP_temperature;BMP_pressure;BME280_temperature;BME280_humidity;BME280_pressure;Samples;Min_cycle;Max_cycle;Signal;HPM_P1;HPM_P2
2022/02/02 00:02:32;;;;;;;1.50;0.50;;;8.60;74.90;;;;;;2526260;54;20953;-80
2022/02/02 00:05:15;;;;;;;1.73;0.60;;;8.60;74.90;;;;;;2296982;54;21495;-80
2022/02/02 00:10:56;;;;;;;1.75;0.60;;;8.70;74.60;;;;;;2292778;54;20977;-80
2022/02/02 00:13:41;;;;;;;0.55;0.40;;;8.70;74.60;;;;;;2292118;54;20941;-80
2022/02/02 00:25:28;;;;;;;1.92;0.60;;;8.70;74.50;;;;;;2525167;54;21017;-79
2022/02/02 00:27:58;;;;;;;2.28;0.90;;;8.70;74.50;;;;;;2290677;54;20963;-80
2022/02/02 00:30:30;;;;;;;1.52;0.60;;;8.70;74.60;;;;;;2302314;54;21051;-81
2022/02/02 00:33:06;;;;;;;2.75;0.70;;;8.70;74.60;;;;;;2546400;54;20960;-80
2022/02/02 00:35:38;;;;;;;1.08;0.40;;;8.70;74.80;;;;;;2526301;54;20941;-80
2022/02/02 00:38:04;;;;;;;1.13;0.53;;;8.70;74.90;;;;;;2304260;54;20975;-80
2022/02/02 00:40:31;;;;;;;1.05;0.45;;;8.80;74.90;;;;;;2298302;54;21097;-79
2022/02/02 00:42:57;;;;;;;1.85;0.70;;;8.80;75.00;;;;;;2309968;54;21040;-81
2022/02/02 00:45:30;;;;;;;2.20;0.75;;;8.80;74.90;;;;;;2291575;54;20974;-80
2022/02/02 00:47:57;;;;;;;1.10;0.40;;;8.80;75.00;;;;;;2292197;54;21009;-79
2022/02/02 00:50:24;;;;;;;1.60;0.60;;;8.80;75.10;;;;;;2306109;54;20909;-80
2022/02/02 00:52:52;;;;;;;1.02;0.32;;;8.80;75.20;;;;;;2530559;54;20945;-80
2022/02/02 00:55:19;;;;;;;1.42;0.50;;;8.90;75.30;;;;;;2513110;54;20990;-80
2022/02/02 00:57:45;;;;;;;2.42;0.52;;;8.90;75.40;;;;;;2309850;54;21558;-79
2022/02/02 01:00:13;;;;;;;1.00;0.50;;;8.90;75.30;;;;;;2523895;54;20949;-79
2022/02/02 01:02:39;;;;;;;1.55;0.60;;;8.90;75.30;;;;;;2292340;54;20960;-79
2022/02/02 01:05:06;;;;;;;1.62;0.57;;;9.00;75.40;;;;;;2291821;54;21519;-81
2022/02/02 01:20:35;;;;;;;1.62;0.62;;;9.10;75.40;;;;;;2526106;54;20946;-79
2022/02/02 01:32:16;;;;;;;2.08;0.80;;;9.20;75.60;;;;;;2291200;54;20945;-80
2022/02/02 01:34:42;;;;;;;2.00;0.80;;;9.30;75.60;;;;;;2523539;54;21034;-79
2022/02/02 01:37:09;;;;;;;2.10;0.85;;;9.30;75.50;;;;;;2291727;54;20926;-80
2022/02/02 01:39:36;;;;;;;3.67;0.82;;;9.30;75.50;;;;;;2294195;54;20969;-81
2022/02/02 01:42:06;;;;;;;2.72;1.02;;;9.30;75.40;;;;;;2525154;54;20962;-80
2022/02/02 01:44:45;;;;;;;2.03;0.90;;;9.30;75.50;;;;;;2532809;54;21831;-80
2022/02/02 01:47:12;;;;;;;2.20;1.00;;;9.30;75.60;;;;;;2530986;54;21730;-80
2022/02/02 01:56:23;;;;;;;2.20;0.85;;;9.40;75.70;;;;;;2526533;54;21481;-80
2022/02/02 01:59:02;;;;;;;2.83;0.90;;;9.40;75.50;;;;;;2309456;54;21032;-80
2022/02/02 02:01:29;;;;;;;1.90;0.70;;;9.50;75.60;;;;;;2522033;54;21705;-80
2022/02/02 02:03:56;;;;;;;2.25;0.95;;;9.50;75.50;;;;;;2525188;54;20949;-80
2022/02/02 02:06:23;;;;;;;1.90;0.80;;;9.50;75.50;;;;;;2526658;54;21065;-80
2022/02/02 02:08:49;;;;;;;1.95;0.70;;;9.50;75.50;;;;;;2537115;54;21709;-80
2022/02/02 02:11:18;;;;;;;2.87;0.85;;;9.50;75.50;;;;;;2541575;54;21045;-80
2022/02/02 02:14:29;;;;;;;1.95;0.73;;;9.50;75.50;;;;;;2540103;54;21036;-80
2022/02/02 02:16:56;;;;;;;2.70;1.00;;;9.50;75.40;;;;;;2543904;54;21032;-80
2022/02/02 02:19:23;;;;;;;3.78;1.10;;;9.60;75.50;;;;;;2526053;54;20945;-81
2022/02/02 02:21:52;;;;;;;2.40;1.10;;;9.60;75.50;;;;;;2292761;54;21005;-80
2022/02/02 02:24:18;;;;;;;2.55;0.95;;;9.60;75.60;;;;;;2526130;54;21552;-80
2022/02/02 02:26:44;;;;;;;2.90;1.10;;;9.60;75.50;;;;;;2526808;54;21448;-80
2022/02/02 02:37:44;;;;;;;3.00;1.10;;;9.70;75.60;;;;;;2292996;54;20974;-80
2022/02/02 02:57:51;;;;;;;3.40;1.12;;;9.80;75.60;;;;;;2529569;54;20997;-81
2022/02/02 03:00:30;;;;;;;5.10;1.40;;;9.80;75.50;;;;;;2293539;54;21559;-81
2022/02/02 03:32:11;;;;;;;3.42;1.08;;;9.90;75.40;;;;;;2536413;54;21854;-81
2022/02/02 03:49:18;;;;;;;4.82;1.35;;;9.90;75.40;;;;;;2526722;54;20937;-81
2022/02/02 03:55:00;;;;;;;3.35;0.98;;;10.00;74.30;;;;;;2309930;54;21052;-69
2022/02/02 04:03:32;;;;;;;3.87;1.00;;;10.00;74.40;;;;;;2337186;54;20965;-70
2022/02/02 04:06:10;;;;;;;3.58;1.12;;;10.00;74.40;;;;;;2360572;54;21014;-67
2022/02/02 04:08:39;;;;;;;2.95;1.20;;;10.00;74.50;;;;;;2334094;55;21447;-69
2022/02/02 04:11:15;;;;;;;5.43;1.55;;;10.00;74.50;;;;;;2348068;53;21073;-69
2022/02/02 04:59:25;;;;;;;4.12;1.23;;;10.10;74.10;;;;;;2313069;54;21007;-69
2022/02/02 05:11:38;;;;;;;2.45;0.98;;;10.10;74.10;;;;;;2316813;54;20960;-70
2022/02/02 05:15:39;;;;;;;3.60;1.00;;;10.10;74.10;;;;;;2321253;54;21045;-70
2022/02/02 05:21:36;;;;;;;2.95;1.10;;;10.10;74.10;;;;;;2328741;54;21443;-69
2022/02/02 05:25:15;;;;;;;3.00;1.10;;;10.20;74.30;;;;;;2315258;53;21833;-69
2022/02/02 05:42:50;;;;;;;4.20;1.55;;;10.10;73.80;;;;;;2558492;52;21012;-71
2022/02/02 05:48:34;;;;;;;3.58;1.00;;;10.10;73.80;;;;;;2391591;53;21065;-71
2022/02/02 05:51:23;;;;;;;2.75;0.88;;;10.10;73.80;;;;;;2318784;54;21125;-70
2022/02/02 05:53:49;;;;;;;2.00;0.90;;;10.10;74.00;;;;;;2319565;54;20950;-68
2022/02/02 05:56:16;;;;;;;3.50;1.17;;;10.10;74.00;;;;;;2414742;53;21530;-68
2022/02/02 05:58:45;;;;;;;3.92;1.15;;;10.10;74.00;;;;;;2506569;53;20936;-71
2022/02/02 06:01:12;;;;;;;3.87;1.30;;;10.10;74.00;;;;;;2343356;54;21011;-71
2022/02/02 06:03:51;;;;;;;2.30;0.95;;;10.10;74.00;;;;;;2398669;53;21922;-70
2022/02/02 06:06:19;;;;;;;4.65;1.45;;;10.10;74.00;;;;;;2344649;53;20952;-72
2022/02/02 06:08:48;;;;;;;6.05;1.73;;;10.10;74.00;;;;;;2348327;53;20935;-70
2022/02/02 06:11:19;;;;;;;4.57;1.48;;;10.10;74.00;;;;;;2343959;53;20944;-68
2022/02/02 06:13:50;;;;;;;3.85;1.40;;;10.10;74.00;;;;;;2344180;54;20971;-70
2022/02/02 06:16:17;;;;;;;5.60;1.58;;;10.20;74.20;;;;;;2344624;54;20941;-68
2022/02/02 06:18:52;;;;;;;3.15;1.37;;;10.20;74.20;;;;;;2345358;54;20935;-69
2022/02/02 06:21:35;;;;;;;4.82;1.27;;;10.20;74.30;;;;;;2345059;54;21024;-71
2022/02/02 06:24:34;;;;;;;4.22;1.42;;;10.20;73.90;;;;;;2294510;55;20936;-70
2022/02/02 06:27:09;;;;;;;6.72;1.70;;;10.20;73.60;;;;;;2314017;53;20995;-69
2022/02/02 06:29:42;;;;;;;7.37;1.48;;;10.20;74.10;;;;;;2441664;53;20989;-70
2022/02/02 06:32:14;;;;;;;3.17;1.40;;;10.20;74.00;;;;;;2297786;54;21042;-69
2022/02/02 06:34:44;;;;;;;4.45;1.50;;;10.20;74.00;;;;;;2313195;54;21004;-68
2022/02/02 06:37:11;;;;;;;4.05;1.52;;;10.20;74.10;;;;;;2338912;54;21091;-71
2022/02/02 06:39:50;;;;;;;5.37;1.60;;;10.20;74.20;;;;;;2338882;54;21001;-68
2022/02/02 06:42:16;;;;;;;4.43;1.40;;;10.20;74.20;;;;;;2338839;54;20993;-67
2022/02/02 06:44:42;;;;;;;4.43;1.40;;;10.20;74.20;;;;;;2339171;54;21001;-68
2022/02/02 06:47:09;;;;;;;3.20;1.40;;;10.30;74.40;;;;;;2373956;53;21523;-69
2022/02/02 06:49:38;;;;;;;4.25;1.20;;;10.20;74.30;;;;;;2334946;53;21016;-68
2022/02/02 06:52:11;;;;;;;5.03;1.33;;;10.20;74.30;;;;;;2338769;54;20993;-68
2022/02/02 06:55:03;;;;;;;3.42;1.42;;;10.30;74.40;;;;;;2584272;53;20925;-70
2022/02/02 06:57:43;;;;;;;4.05;1.65;;;10.30;74.00;;;;;;2338518;53;20944;-68
2022/02/02 07:00:36;;;;;;;7.60;2.72;;;10.30;74.40;;;;;;2334721;53;21020;-70
2022/02/02 07:04:03;;;;;;;5.03;2.40;;;10.30;74.40;;;;;;2338523;54;20936;-68
2022/02/02 07:06:47;;;;;;;4.15;2.20;;;10.30;73.80;;;;;;2461523;53;21099;-67
2022/02/02 07:09:35;;;;;;;4.68;1.80;;;10.30;74.60;;;;;;2311312;53;21159;-69
2022/02/02 07:12:20;;;;;;;6.40;1.95;;;10.30;74.10;;;;;;2454412;53;21013;-70
2022/02/02 07:15:17;;;;;;;4.70;2.15;;;10.30;74.00;;;;;;2339525;54;21463;-68
2022/02/02 07:18:05;;;;;;;4.05;2.05;;;10.30;74.00;;;;;;2312106;54;21488;-69
2022/02/02 07:20:43;;;;;;;5.82;2.05;;;10.30;74.10;;;;;;2312657;54;20947;-69
2022/02/02 07:27:41;;;;;;;5.35;1.42;;;10.30;74.30;;;;;;2312310;54;21472;-69
2022/02/02 07:30:26;;;;;;;5.65;1.75;;;10.30;74.30;;;;;;2312050;54;21059;-69
2022/02/02 07:33:11;;;;;;;3.42;1.52;;;10.30;74.30;;;;;;2394054;53;20927;-71
2022/02/02 07:35:50;;;;;;;8.35;2.25;;;10.40;74.30;;;;;;2312486;53;20983;-70
2022/02/02 07:38:20;;;;;;;6.45;2.53;;;10.30;74.30;;;;;;2312029;53;20974;-69
2022/02/02 07:40:48;;;;;;;7.85;2.60;;;10.30;75.00;;;;;;2312145;54;21955;-69
2022/02/02 07:43:27;;;;;;;7.07;3.12;;;10.30;74.30;;;;;;2312131;54;21306;-70
2022/02/02 07:46:04;;;;;;;5.00;2.35;;;10.30;74.20;;;;;;2321138;53;20999;-70
2022/02/02 07:48:36;;;;;;;5.55;2.55;;;10.40;74.30;;;;;;2320828;54;21682;-69
2022/02/02 07:51:04;;;;;;;6.30;2.72;;;10.40;74.50;;;;;;2311789;54;20963;-68
2022/02/02 07:53:38;;;;;;;5.45;2.17;;;10.40;74.50;;;;;;2382863;53;20966;-68
2022/02/02 07:56:12;;;;;;;7.20;2.50;;;10.40;74.50;;;;;;2312416;54;21007;-70
2022/02/02 07:58:42;;;;;;;;;;;10.40;74.40;;;;;;2315608;54;21487;-71
2022/02/02 08:01:08;;;;;;;6.97;2.22;;;10.40;73.50;;;;;;2312018;54;20151;-71
2022/02/02 08:03:41;;;;;;;5.87;2.10;;;10.40;74.30;;;;;;2324484;54;20930;-67
2022/02/02 08:06:08;;;;;;;;;;;10.40;74.30;;;;;;2320266;54;20959;-70
2022/02/02 08:08:36;;;;;;;6.65;2.20;;;10.40;73.50;;;;;;2315489;54;20469;-70
2022/02/02 08:11:07;;;;;;;5.93;2.53;;;10.40;74.30;;;;;;2313269;53;21059;-69
2022/02/02 08:13:48;;;;;;;6.78;2.50;;;10.40;74.40;;;;;;2312123;54;21473;-70
2022/02/02 08:16:17;;;;;;;5.97;2.20;;;10.40;74.50;;;;;;2450336;53;21255;-71
2022/02/02 08:18:46;;;;;;;4.97;2.17;;;10.40;74.50;;;;;;2339795;54;21145;-71
2022/02/02 08:21:12;;;;;;;4.97;2.05;;;10.40;74.50;;;;;;2335490;54;20980;-70
2022/02/02 08:23:39;;;;;;;5.12;2.25;;;10.40;74.50;;;;;;2340667;54;20943;-70
2022/02/02 08:26:12;;;;;;;5.55;1.85;;;10.40;74.50;;;;;;2354839;53;20948;-68
2022/02/02 08:28:38;;;;;;;4.95;2.15;;;10.40;74.50;;;;;;2346500;53;20982;-69
2022/02/02 08:31:05;;;;;;;5.80;2.08;;;10.50;74.70;;;;;;2338170;54;20936;-69
2022/02/02 08:33:35;;;;;;;6.30;2.08;;;10.50;74.80;;;;;;2339278;54;21468;-70
2022/02/02 08:36:04;;;;;;;5.62;2.12;;;10.50;75.00;;;;;;2339898;54;20924;-68
2022/02/02 08:38:43;;;;;;;4.43;2.05;;;10.50;75.10;;;;;;2338690;54;21083;-71
2022/02/02 08:41:23;;;;;;;5.00;2.55;;;10.60;75.30;;;;;;2339000;54;21713;-69
2022/02/02 08:43:56;;;;;;;6.93;3.25;;;10.60;75.40;;;;;;2339522;54;20996;-68
2022/02/02 08:46:32;;;;;;;6.82;2.97;;;10.60;75.50;;;;;;2340149;54;21418;-71
2022/02/02 08:49:00;;;;;;;7.57;2.75;;;10.70;75.80;;;;;;2342567;54;21264;-68
2022/02/02 08:51:31;;;;;;;6.95;2.70;;;10.70;75.90;;;;;;2319505;54;20948;-69
2022/02/02 08:54:11;;;;;;;5.05;2.33;;;10.80;76.30;;;;;;2342378;54;21074;-69
2022/02/02 08:57:08;;;;;;;6.28;2.50;;;10.80;76.60;;;;;;2301136;54;21514;-70
2022/02/02 08:59:50;;;;;;;7.75;3.70;;;10.90;76.90;;;;;;2311052;55;21003;-70
2022/02/02 09:02:25;;;;;;;12.27;5.40;;;11.00;77.10;;;;;;2424213;53;21434;-71
2022/02/02 09:07:40;;;;;;;12.50;5.78;;;11.20;77.40;;;;;;2311688;56;20929;-71
2022/02/02 09:10:11;;;;;;;8.23;4.80;;;11.30;77.60;;;;;;2335428;54;21473;-70
2022/02/02 09:37:06;;;;;;;4.87;1.70;;;12.20;76.60;;;;;;2318758;54;20951;-70
2022/02/02 09:39:39;;;;;;;7.78;2.60;;;12.20;76.50;;;;;;2343643;55;21501;-71
2022/02/02 09:42:14;;;;;;;6.35;2.45;;;12.20;77.10;;;;;;2317210;54;21500;-69
2022/02/02 09:44:44;;;;;;;7.82;2.28;;;12.30;76.30;;;;;;2310915;54;20931;-70
2022/02/02 09:47:20;;;;;;;7.47;2.65;;;12.30;76.20;;;;;;2310318;55;20951;-71
2022/02/02 09:50:12;;;;;;;6.35;2.00;;;12.40;76.30;;;;;;2312000;54;20950;-68
2022/02/02 09:52:42;;;;;;;7.78;2.30;;;12.40;76.30;;;;;;2325349;53;20980;-71
2022/02/02 09:55:16;;;;;;;6.78;2.37;;;12.40;76.30;;;;;;2334699;54;20974;-68
2022/02/02 10:04:04;;;;;;;6.80;2.12;;;12.60;76.30;;;;;;2320963;53;20971;-69
2022/02/02 10:06:51;;;;;;;5.75;1.98;;;12.60;76.20;;;;;;2421061;53;21699;-70
2022/02/02 10:09:28;;;;;;;7.53;2.33;;;12.70;75.90;;;;;;2315840;54;21023;-71
2022/02/02 10:12:19;;;;;;;8.23;2.80;;;12.70;75.70;;;;;;2379896;53;20919;-69
2022/02/02 10:14:53;;;;;;;8.50;2.45;;;12.70;75.70;;;;;;2326603;54;21420;-70
2022/02/02 10:17:29;;;;;;;6.25;2.10;;;12.70;75.80;;;;;;2329637;53;20990;-70
2022/02/02 10:19:55;;;;;;;5.45;2.12;;;12.70;75.60;;;;;;2322667;54;21140;-68
2022/02/02 10:22:29;;;;;;;6.05;2.83;;;12.80;76.00;;;;;;2407332;53;20947;-70
2022/02/02 10:24:59;;;;;;;6.50;2.72;;;12.80;75.60;;;;;;2361656;53;21468;-71
2022/02/02 10:27:34;;;;;;;9.35;4.32;;;12.80;75.80;;;;;;2312306;54;21106;-70
2022/02/02 10:30:18;;;;;;;6.97;4.18;;;12.90;75.60;;;;;;2325449;55;20971;-71
2022/02/02 10:32:45;;;;;;;8.32;4.32;;;12.90;75.90;;;;;;2353223;53;20985;-68
2022/02/02 10:35:29;;;;;;;11.00;4.37;;;12.90;75.70;;;;;;2341424;53;20979;-70
2022/02/02 10:38:13;;;;;;;9.38;4.03;;;12.90;75.10;;;;;;2343693;54;20904;-71
2022/02/02 10:40:57;;;;;;;8.80;3.60;;;13.00;75.90;;;;;;2343803;54;20964;-70
2022/02/02 10:43:34;;;;;;;10.00;4.22;;;13.00;75.80;;;;;;2344399;54;20950;-72
2022/02/02 10:46:17;;;;;;;13.25;5.50;;;13.00;75.50;;;;;;2343449;55;21626;-69
2022/02/02 10:48:49;;;;;;;11.48;5.28;;;13.10;75.20;;;;;;2343874;54;20910;-69
2022/02/02 10:51:22;;;;;;;12.70;5.12;;;13.00;75.50;;;;;;2344318;55;21007;-70
2022/02/02 10:57:49;;;;;;;6.85;3.05;;;13.10;74.90;;;;;;2498149;53;20954;-69
2022/02/02 11:00:31;;;;;;;7.57;2.95;;;13.20;75.60;;;;;;2321078;55;20951;-69
2022/02/02 11:06:46;;;;;;;7.87;2.42;;;13.20;75.60;;;;;;2344028;55;20923;-72
2022/02/02 11:09:15;;;;;;;8.73;3.22;;;13.30;75.70;;;;;;2342342;54;21417;-72
2022/02/02 11:11:51;;;;;;;7.03;3.05;;;13.30;75.40;;;;;;2402356;53;20934;-71
2022/02/02 11:14:45;;;;;;;9.35;3.20;;;13.30;75.00;;;;;;2343842;55;20947;-71
2022/02/02 11:19:00;;;;;;;10.45;2.85;;;13.40;74.50;;;;;;2343725;55;21042;-72
2022/02/02 11:21:30;;;;;;;7.87;2.92;;;13.40;74.60;;;;;;2343624;54;20927;-72
2022/02/02 11:23:57;;;;;;;6.18;2.45;;;13.40;75.30;;;;;;2370645;53;20978;-69
2022/02/02 11:29:55;;;;;;;7.72;2.92;;;13.40;75.50;;;;;;2344263;54;20942;-69
2022/02/02 11:32:21;;;;;;;6.07;1.92;;;13.60;74.00;;;;;;2343865;55;21410;-72
2022/02/02 11:34:47;;;;;;;6.15;2.00;;;13.50;75.20;;;;;;2344363;55;20935;-69
2022/02/02 11:37:14;;;;;;;8.73;2.15;;;13.50;74.90;;;;;;2343712;55;21724;-71
2022/02/02 11:43:15;;;;;;;5.43;2.03;;;13.60;74.80;;;;;;2346711;55;20956;-71
2022/02/02 11:45:56;;;;;;;7.80;3.08;;;13.60;74.80;;;;;;2456641;53;20988;-69
2022/02/02 11:49:03;;;;;;;7.30;2.95;;;13.60;74.00;;;;;;2343594;53;20931;-70
2022/02/02 11:52:06;;;;;;;10.15;3.67;;;13.60;73.80;;;;;;2345255;54;20994;-69
2022/02/02 11:54:55;;;;;;;;;;;13.60;73.80;;;;;;2346168;54;21486;-71
2022/02/02 11:57:24;;;;;;;8.77;3.15;;;13.60;73.60;;;;;;2317046;54;20201;-72
2022/02/02 12:00:21;;;;;;;8.68;3.30;;;13.60;74.60;;;;;;2310875;54;20951;-69
2022/02/02 12:03:18;;;;;;;7.12;2.35;;;13.60;74.00;;;;;;2313149;54;21047;-72
2022/02/02 12:06:08;;;;;;;10.05;2.42;;;13.60;74.00;;;;;;2310556;53;21016;-70
2022/02/02 12:09:01;;;;;;;12.35;7.07;;;13.60;74.60;;;;;;2373382;54;20947;-68
2022/02/02 12:20:32;;;;;;;6.12;2.15;;;13.60;74.20;;;;;;2414069;53;21087;-70
2022/02/02 12:45:34;;;;;;;6.55;2.25;;;13.40;73.30;;;;;;2311811;53;21015;-70
2022/02/02 12:48:05;;;;;;;5.07;2.10;;;13.30;72.70;;;;;;2312128;53;20967;-67
2022/02/02 12:54:15;;;;;;;5.97;2.20;;;13.20;73.00;;;;;;2312239;53;20968;-69
2022/02/02 12:56:41;;;;;;;3.92;1.33;;;13.20;73.30;;;;;;2311826;54;21015;-70
2022/02/02 13:02:13;;;;;;;4.00;1.45;;;13.10;73.60;;;;;;2315199;54;20936;-68
2022/02/02 13:04:40;;;;;;;4.22;1.35;;;13.10;73.30;;;;;;2313193;54;21459;-69
2022/02/02 13:07:17;;;;;;;3.62;1.33;;;13.10;74.00;;;;;;2301433;53;20946;-68
2022/02/02 13:09:47;;;;;;;4.12;1.42;;;13.10;73.70;;;;;;2308906;53;21465;-69
2022/02/02 13:15:14;;;;;;;3.12;1.15;;;13.10;74.00;;;;;;2311643;53;21707;-70
2022/02/02 13:17:46;;;;;;;2.90;1.00;;;13.10;73.10;;;;;;2316861;54;20948;-68
2022/02/02 13:20:16;;;;;;;3.05;1.08;;;13.10;74.00;;;;;;2337481;54;20928;-67
2022/02/02 13:22:51;;;;;;;3.42;1.30;;;13.10;74.00;;;;;;2339125;54;21433;-69
2022/02/02 13:25:36;;;;;;;3.97;1.27;;;13.10;73.90;;;;;;2339637;54;21024;-68
2022/02/02 13:28:05;;;;;;;3.05;1.20;;;13.10;73.60;;;;;;2338897;54;21808;-68
2022/02/02 13:30:47;;;;;;;3.90;1.67;;;13.00;74.10;;;;;;2482802;53;21401;-68
2022/02/02 13:33:19;;;;;;;3.70;1.60;;;13.00;74.00;;;;;;2412832;53;20941;-66
2022/02/02 13:36:09;;;;;;;4.68;1.73;;;13.00;74.40;;;;;;2339249;54;21115;-69
2022/02/02 13:39:01;;;;;;;3.30;1.80;;;13.00;74.40;;;;;;2429644;53;20969;-68
2022/02/02 13:53:56;;;;;;;3.35;1.40;;;13.10;73.70;;;;;;2324242;54;20952;-70
2022/02/02 14:00:22;;;;;;;5.40;1.85;;;13.00;73.80;;;;;;2339321;54;21337;-68
2022/02/02 14:06:02;;;;;;;5.05;2.40;;;12.90;74.00;;;;;;2339078;54;20933;-67
2022/02/02 14:32:00;;;;;;;7.97;4.62;;;12.80;74.60;;;;;;2394099;53;20921;-68
2022/02/02 14:34:49;;;;;;;8.63;5.07;;;12.80;74.50;;;;;;2338218;54;22021;-69
2022/02/02 14:37:19;;;;;;;6.82;4.47;;;12.70;74.30;;;;;;2419271;53;21291;-68
2022/02/02 14:39:59;;;;;;;7.22;4.05;;;12.70;74.20;;;;;;2338502;54;20953;-69
2022/02/02 14:42:31;;;;;;;4.87;2.78;;;12.70;74.20;;;;;;2338067;54;21004;-68
2022/02/02 14:45:05;;;;;;;3.90;2.00;;;12.70;74.50;;;;;;2338775;54;20942;-68
2022/02/02 14:47:36;;;;;;;3.30;1.80;;;12.60;74.60;;;;;;2339147;54;20956;-69
2022/02/02 14:50:13;;;;;;;4.25;2.15;;;12.60;74.80;;;;;;2334742;54;20980;-69
2022/02/02 14:52:53;;;;;;;5.78;2.75;;;12.60;75.00;;;;;;2338355;54;20953;-69
2022/02/02 15:07:29;;;;;;;3.72;1.85;;;12.60;75.30;;;;;;2338682;54;20940;-68
2022/02/02 15:29:19;;;;;;;3.97;1.90;;;12.60;75.00;;;;;;2347796;54;20983;-70
2022/02/02 15:31:47;;;;;;;3.67;1.70;;;12.70;75.10;;;;;;2318507;54;21003;-70
2022/02/02 15:34:51;;;;;;;4.25;2.28;;;12.60;75.20;;;;;;2316482;53;20972;-67
2022/02/02 15:37:24;;;;;;;4.30;1.85;;;12.60;75.30;;;;;;2317198;54;20930;-70
2022/02/02 15:40:07;;;;;;;3.97;1.40;;;12.70;75.40;;;;;;2484794;54;20926;-67
2022/02/02 15:42:57;;;;;;;3.08;1.40;;;12.70;75.40;;;;;;2309592;53;21447;-66
2022/02/02 15:57:34;;;;;;;3.53;2.12;;;12.70;75.00;;;;;;2318531;54;20988;-68
2022/02/02 16:03:03;;;;;;;3.12;1.75;;;12.60;74.80;;;;;;2316635;54;20957;-67
2022/02/02 16:05:37;;;;;;;3.80;1.80;;;12.60;74.80;;;;;;2339350;54;20992;-68
2022/02/02 16:08:07;;;;;;;4.50;2.20;;;12.60;74.80;;;;;;2339261;54;20964;-66
2022/02/02 16:10:44;;;;;;;5.55;3.42;;;12.60;75.00;;;;;;2349239;53;21020;-67
2022/02/02 16:13:31;;;;;;;7.97;5.20;;;12.60;74.90;;;;;;2316725;54;20973;-67
2022/02/02 16:16:10;;;;;;;7.85;4.60;;;12.50;74.70;;;;;;2339065;54;20968;-69
2022/02/02 16:19:27;;;;;;;5.87;3.28;;;12.50;74.60;;;;;;2340704;54;21043;-68
2022/02/02 16:31:51;;;;;;;3.10;1.52;;;12.40;74.30;;;;;;2341953;54;20956;-68
2022/02/02 16:37:06;;;;;;;4.80;2.30;;;12.40;74.60;;;;;;2421189;53;20985;-71
2022/02/02 16:39:39;;;;;;;3.67;1.70;;;12.40;74.60;;;;;;2344442;54;20973;-69
2022/02/02 16:44:51;;;;;;;2.30;0.82;;;12.30;74.30;;;;;;2339569;54;20992;-68
2022/02/02 16:47:17;;;;;;;1.98;0.90;;;12.30;74.20;;;;;;2338653;54;20944;-69
2022/02/02 16:49:55;;;;;;;2.50;1.15;;;12.20;74.20;;;;;;2330136;54;20956;-68
2022/02/02 16:52:29;;;;;;;3.55;1.87;;;12.20;74.30;;;;;;2374430;53;21752;-69
2022/02/02 16:54:59;;;;;;;2.55;1.37;;;12.10;74.40;;;;;;2373089;53;20973;-68
2022/02/02 16:57:43;;;;;;;4.37;1.75;;;12.10;74.50;;;;;;2375799;53;20937;-69
2022/02/02 17:31:44;;;;;;;5.43;2.92;;;11.90;75.30;;;;;;2342537;53;20935;-70
2022/02/02 17:34:26;;;;;;;6.78;3.55;;;11.90;75.40;;;;;;2341137;54;20943;-69
2022/02/02 17:37:16;;;;;;;3.58;1.87;;;11.90;75.50;;;;;;2329930;54;20988;-68
2022/02/02 17:39:54;;;;;;;4.12;2.00;;;11.90;75.60;;;;;;2393240;53;20991;-69
2022/02/02 17:43:02;;;;;;;10.55;5.75;;;11.90;75.60;;;;;;2330988;54;20941;-69
2022/02/02 18:21:35;;;;;;;4.57;2.75;;;12.00;75.50;;;;;;2328351;54;21084;-69
2022/02/02 18:24:10;;;;;;;5.00;3.10;;;12.00;75.50;;;;;;2332602;54;20980;-68
2022/02/02 18:26:44;;;;;;;4.57;2.83;;;11.90;75.50;;;;;;2347780;53;20976;-68
2022/02/02 18:29:50;;;;;;;5.80;3.00;;;11.90;75.60;;;;;;2338676;54;20992;-68
2022/02/02 18:32:31;;;;;;;4.70;2.45;;;11.90;75.60;;;;;;2337298;54;21063;-68
2022/02/02 18:35:01;;;;;;;4.05;2.22;;;11.90;75.60;;;;;;2337314;54;20980;-69
2022/02/02 18:47:34;;;;;;;3.28;2.10;;;11.90;75.60;;;;;;2312133;54;21054;-68
2022/02/02 18:50:42;;;;;;;3.85;1.87;;;11.90;75.60;;;;;;2327368;53;20971;-68
2022/02/02 18:53:46;;;;;;;5.32;2.78;;;11.90;75.50;;;;;;2312391;55;20955;-69
2022/02/02 18:56:31;;;;;;;4.32;2.92;;;11.90;75.50;;;;;;2351730;53;21029;-69
2022/02/02 19:15:20;;;;;;;3.62;1.50;;;11.90;75.50;;;;;;2314326;53;21430;-69
2022/02/02 19:38:10;;;;;;;3.03;1.60;;;11.80;75.60;;;;;;2312250;53;21002;-68
2022/02/02 19:52:15;;;;;;;3.05;1.35;;;11.80;75.50;;;;;;2313909;53;21642;-68
2022/02/02 20:01:54;;;;;;;6.60;3.42;;;11.80;75.30;;;;;;2355130;53;21400;-68
2022/02/02 20:04:38;;;;;;;6.12;3.50;;;11.80;75.30;;;;;;2461750;53;20960;-69
2022/02/02 20:11:02;;;;;;;6.65;3.42;;;11.70;75.20;;;;;;2319426;54;21023;-69
2022/02/02 20:13:29;;;;;;;5.25;2.70;;;11.70;75.20;;;;;;2310278;55;21741;-69
2022/02/02 20:15:55;;;;;;;4.35;2.42;;;11.70;75.30;;;;;;2310307;55;20956;-70
2022/02/02 20:18:24;;;;;;;3.78;1.90;;;11.70;75.40;;;;;;2310697;54;20940;-70
2022/02/02 20:20:53;;;;;;;4.10;1.80;;;11.70;75.40;;;;;;2311034;55;21646;-68
2022/02/02 20:23:19;;;;;;;4.45;1.90;;;11.70;75.50;;;;;;2403961;53;21373;-70
2022/02/02 20:25:51;;;;;;;4.90;2.28;;;11.70;75.60;;;;;;2312570;55;21024;-70
2022/02/02 20:28:17;;;;;;;4.12;1.85;;;11.70;75.70;;;;;;2455695;53;20936;-69
2022/02/02 20:30:44;;;;;;;3.70;2.15;;;11.70;75.70;;;;;;2306811;55;21011;-69
2022/02/02 20:33:12;;;;;;;3.15;1.67;;;11.70;75.70;;;;;;2306623;55;21036;-68
2022/02/02 20:35:38;;;;;;;3.65;1.80;;;11.70;75.70;;;;;;2306875;54;21884;-68
2022/02/02 20:38:05;;;;;;;3.50;1.87;;;11.70;75.70;;;;;;2306767;55;20972;-69
2022/02/02 20:40:32;;;;;;;3.15;1.50;;;11.70;75.70;;;;;;2307414;55;21007;-70
2022/02/02 20:43:11;;;;;;;2.97;1.60;;;11.70;75.70;;;;;;2306505;55;20968;-68
2022/02/02 20:46:30;;;;;;;3.20;1.60;;;11.70;75.60;;;;;;2310711;55;20955;-68
2022/02/02 21:15:25;;;;;;;3.12;1.52;;;11.70;75.40;;;;;;2350888;53;21830;-68
2022/02/02 21:17:53;;;;;;;3.35;1.73;;;11.60;75.30;;;;;;2343799;54;20891;-69
2022/02/02 21:20:28;;;;;;;3.30;1.85;;;11.60;75.30;;;;;;2343039;54;20928;-69
2022/02/02 21:23:12;;;;;;;3.62;1.95;;;11.60;75.40;;;;;;2343322;54;20920;-69
2022/02/02 21:26:11;;;;;;;3.85;1.92;;;11.60;75.40;;;;;;2342186;54;21016;-70
2022/02/02 21:28:40;;;;;;;4.60;2.08;;;11.60;75.50;;;;;;2343210;54;20973;-68
2022/02/02 21:31:12;;;;;;;4.62;2.60;;;11.60;75.60;;;;;;2495172;53;21044;-68
2022/02/02 21:33:39;;;;;;;5.37;3.07;;;11.60;75.70;;;;;;2344044;54;20949;-70
2022/02/02 21:36:09;;;;;;;4.65;2.67;;;11.60;75.80;;;;;;2350224;53;20958;-68
2022/02/02 21:38:54;;;;;;;4.47;2.28;;;11.60;75.90;;;;;;2463936;53;20966;-68
2022/02/02 21:41:28;;;;;;;4.03;1.98;;;11.60;75.90;;;;;;2332344;54;21007;-70
2022/02/02 21:43:54;;;;;;;3.90;1.95;;;11.60;76.10;;;;;;2339639;54;21013;-70
2022/02/02 21:46:22;;;;;;;3.42;1.67;;;11.60;76.10;;;;;;2343472;53;21032;-69
2022/02/02 21:48:48;;;;;;;2.97;1.52;;;11.60;76.20;;;;;;2346668;53;21613;-69
2022/02/02 21:51:24;;;;;;;3.03;1.60;;;11.70;76.30;;;;;;2336438;55;21443;-69
2022/02/02 21:53:51;;;;;;;3.12;1.70;;;11.70;76.20;;;;;;2331866;53;21041;-70
2022/02/02 21:56:17;;;;;;;4.00;1.62;;;11.70;76.10;;;;;;2351360;53;21037;-69
2022/02/02 21:58:43;;;;;;;3.00;1.40;;;11.70;76.10;;;;;;2320049;54;20964;-68
2022/02/02 22:01:09;;;;;;;3.37;1.55;;;11.70;76.00;;;;;;2329639;54;20941;-69
2022/02/02 22:03:35;;;;;;;3.05;1.25;;;11.70;76.00;;;;;;2317045;54;20996;-70
2022/02/02 22:06:02;;;;;;;3.70;1.12;;;11.70;75.90;;;;;;2314736;54;20969;-69
2022/02/02 22:08:29;;;;;;;2.10;0.93;;;11.70;75.90;;;;;;2317269;54;21442;-69
2022/02/02 22:10:58;;;;;;;2.37;1.02;;;11.70;75.90;;;;;;2317779;53;20976;-70
2022/02/02 22:13:35;;;;;;;2.78;1.15;;;11.70;75.90;;;;;;2292721;55;20949;-70
2022/02/02 22:16:06;;;;;;;2.80;1.30;;;11.70;75.90;;;;;;2316349;54;20996;-70
2022/02/02 22:18:34;;;;;;;3.28;1.52;;;11.70;75.80;;;;;;2340343;54;21029;-69
2022/02/02 22:21:00;;;;;;;3.90;1.80;;;11.80;75.90;;;;;;2344104;54;21577;-69
2022/02/02 22:23:27;;;;;;;4.93;2.28;;;11.80;75.80;;;;;;2318595;53;20933;-69
2022/02/02 22:25:54;;;;;;;6.37;2.90;;;11.70;75.60;;;;;;2313606;54;20951;-68
2022/02/02 22:28:20;;;;;;;7.53;3.33;;;11.80;75.60;;;;;;2327075;54;20950;-70
2022/02/02 22:30:47;;;;;;;5.45;2.55;;;11.70;75.40;;;;;;2343285;53;20962;-69
2022/02/02 22:33:14;;;;;;;3.72;1.77;;;11.70;75.40;;;;;;2344217;54;21010;-69
2022/02/02 22:35:41;;;;;;;2.97;1.37;;;11.70;75.40;;;;;;2319594;53;21010;-69
2022/02/02 22:38:08;;;;;;;3.42;1.50;;;11.70;75.40;;;;;;2412452;53;21018;-69
2022/02/02 22:40:37;;;;;;;3.55;1.33;;;11.70;75.40;;;;;;2378138;53;21451;-68
2022/02/02 22:43:03;;;;;;;2.50;1.20;;;11.70;75.40;;;;;;2363356;53;20919;-69
2022/02/02 22:45:29;;;;;;;2.60;1.20;;;11.70;75.40;;;;;;2344142;54;21014;-69
2022/02/02 22:47:57;;;;;;;2.97;1.10;;;11.70;75.40;;;;;;2459218;53;20974;-68
2022/02/02 22:50:23;;;;;;;3.30;1.10;;;11.70;75.40;;;;;;2343962;54;20953;-69